sensor_id;sensor_type;location;lat;lon;timestamp;temperature;humidity
56162;DHT22;42045;52.986;6.014;2022-10-16T00:00:31;11.50;99.90
56162;DHT22;42045;52.986;6.014;2022-10-16T00:02:57;11.60;99.90
56162;DHT22;42045;52.986;6.014;2022-10-16T00:05:22;11.60;99.90
56162;DHT22;42045;52.986;6.014;2022-10-16T00:07:48;11.60;99.90
56162;DHT22;42045;52.986;6.014;2022-10-16T00:10:14;11.60;99.90
56162;DHT22;42045;52.986;6.014;2022-10-16T00:12:39;11.60;99.90
56162;DHT22;42045;52.986;6.014;2022-10-16T00:15:05;11.60;99.90
56162;DHT22;42045;52.986;6.014;2022-10-16T00:17:32;11.70;99.90
56162;DHT22;42045;52.986;6.014;2022-10-16T00:19:57;11.70;99.90
56162;DHT22;42045;52.986;6.014;2022-10-16T00:22:23;11.70;99.90
56162;DHT22;42045;52.986;6.014;2022-10-16T00:24:49;11.70;99.90
56162;DHT22;42045;52.986;6.014;2022-10-16T00:27:15;11.70;99.90
56162;DHT22;42045;52.986;6.014;2022-10-16T00:29:42;11.70;99.90
56162;DHT22;42045;52.986;6.014;2022-10-16T00:32:08;11.80;99.90
56162;DHT22;42045;52.986;6.014;2022-10-16T00:34:34;11.80;99.90
56162;DHT22;42045;52.986;6.014;2022-10-16T00:37:00;11.80;99.90
56162;DHT22;42045;52.986;6.014;2022-10-16T00:39:26;11.80;99.90
56162;DHT22;42045;52.986;6.014;2022-10-16T00:41:52;11.90;99.90
56162;DHT22;42045;52.986;6.014;2022-10-16T00:44:43;11.90;99.90
56162;DHT22;42045;52.986;6.014;2022-10-16T00:47:11;11.90;99.90
56162;DHT22;42045;52.986;6.014;2022-10-16T00:49:38;12.00;99.90
56162;DHT22;42045;52.986;6.014;2022-10-16T00:52:05;11.90;99.90
56162;DHT22;42045;52.986;6.014;2022-10-16T00:54:32;12.00;99.90
56162;DHT22;42045;52.986;6.014;2022-10-16T00:57:02;12.00;99.90
56162;DHT22;42045;52.986;6.014;2022-10-16T00:59:33;12.00;99.90
56162;DHT22;42045;52.986;6.014;2022-10-16T01:01:59;12.00;99.90
56162;DHT22;42045;52.986;6.014;2022-10-16T01:04:26;12.00;99.90
56162;DHT22;42045;52.986;6.014;2022-10-16T01:09:34;12.00;99.90
56162;DHT22;42045;52.986;6.014;2022-10-16T01:12:30;12.00;99.90
56162;DHT22;42045;52.986;6.014;2022-10-16T01:15:10;12.00;99.90
56162;DHT22;42045;52.986;6.014;2022-10-16T01:17:49;12.00;99.90
56162;DHT22;42045;52.986;6.014;2022-10-16T01:26:20;12.00;99.90
56162;DHT22;42045;52.986;6.014;2022-10-16T01:31:39;12.00;99.90
56162;DHT22;42045;52.986;6.014;2022-10-16T01:34:16;12.00;99.90
56162;DHT22;42045;52.986;6.014;2022-10-16T01:37:15;12.10;99.90
56162;DHT22;42045;52.986;6.014;2022-10-16T01:39:44;12.10;99.90
56162;DHT22;42045;52.986;6.014;2022-10-16T01:42:19;12.10;99.90
56162;DHT22;42045;52.986;6.014;2022-10-16T01:44:47;12.00;99.90
56162;DHT22;42045;52.986;6.014;2022-10-16T01:47:14;12.10;99.90
56162;DHT22;42045;52.986;6.014;2022-10-16T01:49:41;12.10;99.90
56162;DHT22;42045;52.986;6.014;2022-10-16T01:52:15;12.00;99.90
56162;DHT22;42045;52.986;6.014;2022-10-16T01:54:42;12.10;99.90
56162;DHT22;42045;52.986;6.014;2022-10-16T01:57:09;12.10;99.90
56162;DHT22;42045;52.986;6.014;2022-10-16T01:59:40;12.10;99.90
56162;DHT22;42045;52.986;6.014;2022-10-16T02:02:10;12.10;99.90
56162;DHT22;42045;52.986;6.014;2022-10-16T02:04:45;12.10;99.90
56162;DHT22;42045;52.986;6.014;2022-10-16T02:07:12;12.10;99.90
56162;DHT22;42045;52.986;6.014;2022-10-16T02:09:38;12.10;99.90
56162;DHT22;42045;52.986;6.014;2022-10-16T02:12:30;12.00;99.90
56162;DHT22;42045;52.986;6.014;2022-10-16T02:14:57;12.00;99.90
56162;DHT22;42045;52.986;6.014;2022-10-16T02:17:24;12.00;99.90
56162;DHT22;42045;52.986;6.014;2022-10-16T02:19:51;12.00;99.90
56162;DHT22;42045;52.986;6.014;2022-10-16T02:22:43;12.10;99.90
56162;DHT22;42045;52.986;6.014;2022-10-16T02:25:13;12.10;99.90
56162;DHT22;42045;52.986;6.014;2022-10-16T02:27:55;12.00;99.90
56162;DHT22;42045;52.986;6.014;2022-10-16T02:30:49;12.00;99.90
56162;DHT22;42045;52.986;6.014;2022-10-16T02:33:17;11.90;99.90
56162;DHT22;42045;52.986;6.014;2022-10-16T02:35:44;12.00;99.90
56162;DHT22;42045;52.986;6.014;2022-10-16T02:38:12;11.90;99.90
56162;DHT22;42045;52.986;6.014;2022-10-16T02:40:39;11.90;99.90
56162;DHT22;42045;52.986;6.014;2022-10-16T02:43:06;11.90;99.90
56162;DHT22;42045;52.986;6.014;2022-10-16T02:45:32;11.90;99.90
56162;DHT22;42045;52.986;6.014;2022-10-16T02:47:58;11.90;99.90
56162;DHT22;42045;52.986;6.014;2022-10-16T02:50:23;11.90;99.90
56162;DHT22;42045;52.986;6.014;2022-10-16T02:52:50;11.90;99.90
56162;DHT22;42045;52.986;6.014;2022-10-16T02:55:16;11.90;99.90
56162;DHT22;42045;52.986;6.014;2022-10-16T02:57:42;11.80;99.90
56162;DHT22;42045;52.986;6.014;2022-10-16T03:00:10;11.80;99.90
56162;DHT22;42045;52.986;6.014;2022-10-16T03:02:37;11.90;99.90
56162;DHT22;42045;52.986;6.014;2022-10-16T03:05:03;11.90;99.90
56162;DHT22;42045;52.986;6.014;2022-10-16T03:07:28;11.90;99.90
56162;DHT22;42045;52.986;6.014;2022-10-16T03:09:54;11.90;99.90
56162;DHT22;42045;52.986;6.014;2022-10-16T03:12:21;11.80;99.90
56162;DHT22;42045;52.986;6.014;2022-10-16T03:14:47;11.90;99.90
56162;DHT22;42045;52.986;6.014;2022-10-16T03:17:12;11.80;99.90
56162;DHT22;42045;52.986;6.014;2022-10-16T03:19:38;11.80;99.90
56162;DHT22;42045;52.986;6.014;2022-10-16T03:22:04;11.80;99.90
56162;DHT22;42045;52.986;6.014;2022-10-16T03:24:30;11.80;99.90
56162;DHT22;42045;52.986;6.014;2022-10-16T03:26:55;11.90;99.90
56162;DHT22;42045;52.986;6.014;2022-10-16T03:29:21;11.80;99.90
56162;DHT22;42045;52.986;6.014;2022-10-16T03:31:47;11.90;99.90
56162;DHT22;42045;52.986;6.014;2022-10-16T03:34:14;11.90;99.90
56162;DHT22;42045;52.986;6.014;2022-10-16T03:36:40;11.80;99.90
56162;DHT22;42045;52.986;6.014;2022-10-16T03:39:06;11.90;99.90
56162;DHT22;42045;52.986;6.014;2022-10-16T03:41:31;11.90;99.90
56162;DHT22;42045;52.986;6.014;2022-10-16T03:43:57;11.90;99.90
56162;DHT22;42045;52.986;6.014;2022-10-16T03:46:23;11.80;99.90
56162;DHT22;42045;52.986;6.014;2022-10-16T03:48:48;11.80;99.90
56162;DHT22;42045;52.986;6.014;2022-10-16T03:51:14;11.80;99.90
56162;DHT22;42045;52.986;6.014;2022-10-16T03:53:40;11.80;99.90
56162;DHT22;42045;52.986;6.014;2022-10-16T03:56:06;11.80;99.90
56162;DHT22;42045;52.986;6.014;2022-10-16T03:58:31;11.80;99.90
56162;DHT22;42045;52.986;6.014;2022-10-16T04:00:57;11.80;99.90
56162;DHT22;42045;52.986;6.014;2022-10-16T04:03:23;11.80;99.90
56162;DHT22;42045;52.986;6.014;2022-10-16T04:05:49;11.80;99.90
56162;DHT22;42045;52.986;6.014;2022-10-16T04:08:15;11.80;99.90
56162;DHT22;42045;52.986;6.014;2022-10-16T04:10:42;11.70;99.90
56162;DHT22;42045;52.986;6.014;2022-10-16T04:13:09;11.80;99.90
56162;DHT22;42045;52.986;6.014;2022-10-16T04:15:34;11.70;99.90
56162;DHT22;42045;52.986;6.014;2022-10-16T04:18:00;11.80;99.90
56162;DHT22;42045;52.986;6.014;2022-10-16T04:20:26;11.80;99.90
56162;DHT22;42045;52.986;6.014;2022-10-16T04:22:51;11.80;99.90
56162;DHT22;42045;52.986;6.014;2022-10-16T04:25:17;11.90;99.90
56162;DHT22;42045;52.986;6.014;2022-10-16T04:27:43;11.90;99.90
56162;DHT22;42045;52.986;6.014;2022-10-16T04:30:10;11.90;99.90
56162;DHT22;42045;52.986;6.014;2022-10-16T04:32:36;12.00;99.90
56162;DHT22;42045;52.986;6.014;2022-10-16T04:35:01;12.00;99.90
56162;DHT22;42045;52.986;6.014;2022-10-16T04:37:28;12.00;99.90
56162;DHT22;42045;52.986;6.014;2022-10-16T04:39:54;12.00;99.90
56162;DHT22;42045;52.986;6.014;2022-10-16T04:42:20;12.00;99.90
56162;DHT22;42045;52.986;6.014;2022-10-16T04:44:46;12.00;99.90
56162;DHT22;42045;52.986;6.014;2022-10-16T04:47:12;12.00;99.90
56162;DHT22;42045;52.986;6.014;2022-10-16T04:49:38;12.00;99.90
56162;DHT22;42045;52.986;6.014;2022-10-16T04:52:04;12.00;99.90
56162;DHT22;42045;52.986;6.014;2022-10-16T04:54:30;12.00;99.90
56162;DHT22;42045;52.986;6.014;2022-10-16T04:56:56;12.00;99.90
56162;DHT22;42045;52.986;6.014;2022-10-16T04:59:21;12.00;99.90
56162;DHT22;42045;52.986;6.014;2022-10-16T05:01:48;11.90;99.90
56162;DHT22;42045;52.986;6.014;2022-10-16T05:04:14;12.00;99.90
56162;DHT22;42045;52.986;6.014;2022-10-16T05:06:40;12.00;99.90
56162;DHT22;42045;52.986;6.014;2022-10-16T05:09:07;12.00;99.90
56162;DHT22;42045;52.986;6.014;2022-10-16T05:11:33;12.00;99.90
56162;DHT22;42045;52.986;6.014;2022-10-16T05:13:59;12.00;99.90
56162;DHT22;42045;52.986;6.014;2022-10-16T05:16:25;12.00;99.90
56162;DHT22;42045;52.986;6.014;2022-10-16T05:18:54;12.00;99.90
56162;DHT22;42045;52.986;6.014;2022-10-16T05:21:20;12.00;99.90
56162;DHT22;42045;52.986;6.014;2022-10-16T05:23:46;12.00;99.90
56162;DHT22;42045;52.986;6.014;2022-10-16T05:26:12;12.10;99.90
56162;DHT22;42045;52.986;6.014;2022-10-16T05:28:37;12.10;99.90
56162;DHT22;42045;52.986;6.014;2022-10-16T05:31:07;12.00;99.90
56162;DHT22;42045;52.986;6.014;2022-10-16T05:33:34;12.10;99.90
56162;DHT22;42045;52.986;6.014;2022-10-16T05:36:08;12.10;99.90
56162;DHT22;42045;52.986;6.014;2022-10-16T05:38:35;12.10;99.90
56162;DHT22;42045;52.986;6.014;2022-10-16T05:41:01;12.10;99.90
56162;DHT22;42045;52.986;6.014;2022-10-16T05:43:28;12.10;99.90
56162;DHT22;42045;52.986;6.014;2022-10-16T05:46:05;12.10;99.90
56162;DHT22;42045;52.986;6.014;2022-10-16T05:48:31;12.10;99.90
56162;DHT22;42045;52.986;6.014;2022-10-16T05:51:03;12.10;99.90
56162;DHT22;42045;52.986;6.014;2022-10-16T05:53:31;12.10;99.90
56162;DHT22;42045;52.986;6.014;2022-10-16T05:55:57;12.10;99.90
56162;DHT22;42045;52.986;6.014;2022-10-16T05:58:23;12.10;99.90
56162;DHT22;42045;52.986;6.014;2022-10-16T06:00:57;12.10;99.90
56162;DHT22;42045;52.986;6.014;2022-10-16T06:03:23;12.10;99.90
56162;DHT22;42045;52.986;6.014;2022-10-16T06:05:49;12.10;99.90
56162;DHT22;42045;52.986;6.014;2022-10-16T06:08:15;12.10;99.90
56162;DHT22;42045;52.986;6.014;2022-10-16T06:10:40;12.10;99.90
56162;DHT22;42045;52.986;6.014;2022-10-16T06:13:06;12.10;99.90
56162;DHT22;42045;52.986;6.014;2022-10-16T06:15:32;12.10;99.90
56162;DHT22;42045;52.986;6.014;2022-10-16T06:17:57;12.20;99.90
56162;DHT22;42045;52.986;6.014;2022-10-16T06:20:23;12.10;99.90
56162;DHT22;42045;52.986;6.014;2022-10-16T06:22:48;12.20;99.90
56162;DHT22;42045;52.986;6.014;2022-10-16T06:25:14;12.20;99.90
56162;DHT22;42045;52.986;6.014;2022-10-16T06:27:40;12.20;99.90
56162;DHT22;42045;52.986;6.014;2022-10-16T06:30:06;12.20;99.90
56162;DHT22;42045;52.986;6.014;2022-10-16T06:32:32;12.20;99.90
56162;DHT22;42045;52.986;6.014;2022-10-16T06:34:58;12.30;99.90
56162;DHT22;42045;52.986;6.014;2022-10-16T06:37:24;12.20;99.90
56162;DHT22;42045;52.986;6.014;2022-10-16T06:39:50;12.30;99.90
56162;DHT22;42045;52.986;6.014;2022-10-16T06:42:18;12.20;99.90
56162;DHT22;42045;52.986;6.014;2022-10-16T06:44:43;12.20;99.90
56162;DHT22;42045;52.986;6.014;2022-10-16T06:47:09;12.20;99.90
56162;DHT22;42045;52.986;6.014;2022-10-16T06:49:35;12.20;99.90
56162;DHT22;42045;52.986;6.014;2022-10-16T06:52:00;12.20;99.90
56162;DHT22;42045;52.986;6.014;2022-10-16T06:54:27;12.20;99.90
56162;DHT22;42045;52.986;6.014;2022-10-16T06:56:53;12.20;99.90
56162;DHT22;42045;52.986;6.014;2022-10-16T06:59:20;12.20;99.90
56162;DHT22;42045;52.986;6.014;2022-10-16T07:01:46;12.20;99.90
56162;DHT22;42045;52.986;6.014;2022-10-16T07:04:12;12.20;99.90
56162;DHT22;42045;52.986;6.014;2022-10-16T07:06:38;12.20;99.90
56162;DHT22;42045;52.986;6.014;2022-10-16T07:09:06;12.20;99.90
56162;DHT22;42045;52.986;6.014;2022-10-16T07:11:32;12.20;99.90
56162;DHT22;42045;52.986;6.014;2022-10-16T07:13:58;12.20;99.90
56162;DHT22;42045;52.986;6.014;2022-10-16T07:16:27;12.30;99.90
56162;DHT22;42045;52.986;6.014;2022-10-16T07:18:57;12.20;99.90
56162;DHT22;42045;52.986;6.014;2022-10-16T07:21:25;12.30;99.90
56162;DHT22;42045;52.986;6.014;2022-10-16T07:23:59;12.30;99.90
56162;DHT22;42045;52.986;6.014;2022-10-16T07:26:26;12.40;99.90
56162;DHT22;42045;52.986;6.014;2022-10-16T07:28:52;12.40;99.90
56162;DHT22;42045;52.986;6.014;2022-10-16T07:31:19;12.50;99.90
56162;DHT22;42045;52.986;6.014;2022-10-16T07:33:46;12.60;99.90
56162;DHT22;42045;52.986;6.014;2022-10-16T07:36:14;12.70;99.90
56162;DHT22;42045;52.986;6.014;2022-10-16T07:38:40;12.80;99.90
56162;DHT22;42045;52.986;6.014;2022-10-16T07:41:13;12.90;99.90
56162;DHT22;42045;52.986;6.014;2022-10-16T07:43:40;13.00;99.90
56162;DHT22;42045;52.986;6.014;2022-10-16T07:46:06;13.00;99.90
56162;DHT22;42045;52.986;6.014;2022-10-16T07:48:33;13.00;99.90
56162;DHT22;42045;52.986;6.014;2022-10-16T07:51:06;13.00;99.90
56162;DHT22;42045;52.986;6.014;2022-10-16T07:53:33;13.00;99.90
56162;DHT22;42045;52.986;6.014;2022-10-16T07:56:06;13.00;99.90
56162;DHT22;42045;52.986;6.014;2022-10-16T07:58:32;13.00;99.90
56162;DHT22;42045;52.986;6.014;2022-10-16T08:01:06;13.00;99.90
56162;DHT22;42045;52.986;6.014;2022-10-16T08:03:32;13.00;99.90
56162;DHT22;42045;52.986;6.014;2022-10-16T08:05:58;13.00;99.90
56162;DHT22;42045;52.986;6.014;2022-10-16T08:08:25;13.00;99.90
56162;DHT22;42045;52.986;6.014;2022-10-16T08:10:51;13.20;99.90
56162;DHT22;42045;52.986;6.014;2022-10-16T08:13:16;13.30;99.90
56162;DHT22;42045;52.986;6.014;2022-10-16T08:15:43;13.40;99.90
56162;DHT22;42045;52.986;6.014;2022-10-16T08:18:10;13.40;99.90
56162;DHT22;42045;52.986;6.014;2022-10-16T08:20:36;13.50;99.90
56162;DHT22;42045;52.986;6.014;2022-10-16T08:23:02;13.60;99.90
56162;DHT22;42045;52.986;6.014;2022-10-16T08:25:28;13.60;99.90
56162;DHT22;42045;52.986;6.014;2022-10-16T08:27:54;13.70;99.90
56162;DHT22;42045;52.986;6.014;2022-10-16T08:30:21;13.70;99.90
56162;DHT22;42045;52.986;6.014;2022-10-16T08:32:47;13.90;99.90
56162;DHT22;42045;52.986;6.014;2022-10-16T08:35:13;13.90;99.90
56162;DHT22;42045;52.986;6.014;2022-10-16T08:37:39;14.00;99.90
56162;DHT22;42045;52.986;6.014;2022-10-16T08:40:11;14.00;99.90
56162;DHT22;42045;52.986;6.014;2022-10-16T08:42:56;14.00;99.90
56162;DHT22;42045;52.986;6.014;2022-10-16T08:48:20;14.20;99.90
56162;DHT22;42045;52.986;6.014;2022-10-16T08:50:51;14.30;99.90
56162;DHT22;42045;52.986;6.014;2022-10-16T08:53:25;14.30;99.90
56162;DHT22;42045;52.986;6.014;2022-10-16T08:55:53;14.40;99.90
56162;DHT22;42045;52.986;6.014;2022-10-16T08:58:26;14.50;99.90
56162;DHT22;42045;52.986;6.014;2022-10-16T09:00:58;14.50;99.90
56162;DHT22;42045;52.986;6.014;2022-10-16T09:03:49;14.50;99.90
56162;DHT22;42045;52.986;6.014;2022-10-16T09:06:30;14.50;99.90
56162;DHT22;42045;52.986;6.014;2022-10-16T09:17:51;14.90;99.90
56162;DHT22;42045;52.986;6.014;2022-10-16T09:20:29;14.90;99.90
56162;DHT22;42045;52.986;6.014;2022-10-16T09:25:32;15.10;99.90
56162;DHT22;42045;52.986;6.014;2022-10-16T09:27:58;15.20;99.90
56162;DHT22;42045;52.986;6.014;2022-10-16T09:30:27;15.20;99.90
56162;DHT22;42045;52.986;6.014;2022-10-16T09:32:55;15.00;99.90
56162;DHT22;42045;52.986;6.014;2022-10-16T09:35:31;15.10;99.90
56162;DHT22;42045;52.986;6.014;2022-10-16T09:37:57;15.10;99.90
56162;DHT22;42045;52.986;6.014;2022-10-16T09:40:36;15.10;99.90
56162;DHT22;42045;52.986;6.014;2022-10-16T09:43:28;15.10;99.90
56162;DHT22;42045;52.986;6.014;2022-10-16T09:48:22;15.20;99.90
56162;DHT22;42045;52.986;6.014;2022-10-16T09:50:59;15.20;99.90
56162;DHT22;42045;52.986;6.014;2022-10-16T09:53:43;15.20;99.90
56162;DHT22;42045;52.986;6.014;2022-10-16T09:56:21;15.20;99.90
56162;DHT22;42045;52.986;6.014;2022-10-16T09:58:52;15.30;99.90
56162;DHT22;42045;52.986;6.014;2022-10-16T10:01:18;15.30;99.90
56162;DHT22;42045;52.986;6.014;2022-10-16T10:03:44;15.30;99.90
56162;DHT22;42045;52.986;6.014;2022-10-16T10:06:21;15.20;99.90
56162;DHT22;42045;52.986;6.014;2022-10-16T10:08:55;15.30;99.90
56162;DHT22;42045;52.986;6.014;2022-10-16T10:11:40;15.30;99.90
56162;DHT22;42045;52.986;6.014;2022-10-16T10:16:43;15.50;99.90
56162;DHT22;42045;52.986;6.014;2022-10-16T10:19:23;15.50;99.90
56162;DHT22;42045;52.986;6.014;2022-10-16T10:21:50;15.40;99.90
56162;DHT22;42045;52.986;6.014;2022-10-16T10:24:18;15.50;99.90
56162;DHT22;42045;52.986;6.014;2022-10-16T10:27:07;15.50;99.90
56162;DHT22;42045;52.986;6.014;2022-10-16T10:32:52;15.70;99.90
56162;DHT22;42045;52.986;6.014;2022-10-16T10:35:38;15.70;99.90
56162;DHT22;42045;52.986;6.014;2022-10-16T10:38:29;15.70;99.90
56162;DHT22;42045;52.986;6.014;2022-10-16T10:41:03;15.80;99.90
56162;DHT22;42045;52.986;6.014;2022-10-16T10:44:01;15.80;99.90
56162;DHT22;42045;52.986;6.014;2022-10-16T10:49:53;15.80;99.90
56162;DHT22;42045;52.986;6.014;2022-10-16T10:55:45;15.80;99.90
56162;DHT22;42045;52.986;6.014;2022-10-16T10:58:29;15.80;99.90
56162;DHT22;42045;52.986;6.014;2022-10-16T11:04:11;15.80;99.90
56162;DHT22;42045;52.986;6.014;2022-10-16T11:06:48;15.80;99.90
56162;DHT22;42045;52.986;6.014;2022-10-16T11:09:30;15.90;99.90
56162;DHT22;42045;52.986;6.014;2022-10-16T11:12:23;15.90;99.90
56162;DHT22;42045;52.986;6.014;2022-10-16T11:14:53;16.00;99.90
56162;DHT22;42045;52.986;6.014;2022-10-16T11:17:35;16.00;99.90
56162;DHT22;42045;52.986;6.014;2022-10-16T11:20:19;16.10;99.90
56162;DHT22;42045;52.986;6.014;2022-10-16T11:23:06;16.00;99.90
56162;DHT22;42045;52.986;6.014;2022-10-16T11:25:33;16.10;99.90
56162;DHT22;42045;52.986;6.014;2022-10-16T11:30:30;16.10;99.90
56162;DHT22;42045;52.986;6.014;2022-10-16T11:35:54;16.00;99.90
56162;DHT22;42045;52.986;6.014;2022-10-16T11:41:00;16.00;99.90
56162;DHT22;42045;52.986;6.014;2022-10-16T11:43:40;16.00;99.90
56162;DHT22;42045;52.986;6.014;2022-10-16T11:46:15;16.10;99.90
56162;DHT22;42045;52.986;6.014;2022-10-16T11:48:48;16.10;99.90
56162;DHT22;42045;52.986;6.014;2022-10-16T11:51:26;16.10;99.90
56162;DHT22;42045;52.986;6.014;2022-10-16T11:54:05;16.10;99.90
56162;DHT22;42045;52.986;6.014;2022-10-16T11:56:32;16.10;99.90
56162;DHT22;42045;52.986;6.014;2022-10-16T12:04:48;16.10;99.90
56162;DHT22;42045;52.986;6.014;2022-10-16T12:07:24;16.10;99.90
56162;DHT22;42045;52.986;6.014;2022-10-16T12:09:52;16.10;99.90
56162;DHT22;42045;52.986;6.014;2022-10-16T12:12:28;16.10;99.90
56162;DHT22;42045;52.986;6.014;2022-10-16T12:17:48;16.40;99.90
56162;DHT22;42045;52.986;6.014;2022-10-16T12:25:36;16.80;99.90
56162;DHT22;42045;52.986;6.014;2022-10-16T12:28:06;16.90;99.90
56162;DHT22;42045;52.986;6.014;2022-10-16T12:30:43;16.90;99.90
56162;DHT22;42045;52.986;6.014;2022-10-16T12:33:22;17.10;99.90
56162;DHT22;42045;52.986;6.014;2022-10-16T12:35:49;17.20;99.90
56162;DHT22;42045;52.986;6.014;2022-10-16T12:41:01;17.40;99.90
56162;DHT22;42045;52.986;6.014;2022-10-16T12:46:20;17.60;99.90
56162;DHT22;42045;52.986;6.014;2022-10-16T12:48:47;17.60;99.90
56162;DHT22;42045;52.986;6.014;2022-10-16T12:51:35;17.60;99.90
56162;DHT22;42045;52.986;6.014;2022-10-16T12:59:29;17.50;99.90
56162;DHT22;42045;52.986;6.014;2022-10-16T13:11:45;17.30;99.90
56162;DHT22;42045;52.986;6.014;2022-10-16T13:16:48;17.30;99.90
56162;DHT22;42045;52.986;6.014;2022-10-16T13:19:35;17.40;99.90
56162;DHT22;42045;52.986;6.014;2022-10-16T13:22:24;17.40;99.90
56162;DHT22;42045;52.986;6.014;2022-10-16T13:32:50;17.50;99.90
56162;DHT22;42045;52.986;6.014;2022-10-16T13:35:21;17.60;99.90
56162;DHT22;42045;52.986;6.014;2022-10-16T13:37:47;17.40;99.90
56162;DHT22;42045;52.986;6.014;2022-10-16T13:40:22;17.40;99.90
56162;DHT22;42045;52.986;6.014;2022-10-16T13:42:49;17.30;99.90
56162;DHT22;42045;52.986;6.014;2022-10-16T13:45:24;17.30;99.90
56162;DHT22;42045;52.986;6.014;2022-10-16T13:48:02;17.20;99.90
56162;DHT22;42045;52.986;6.014;2022-10-16T13:50:28;17.00;99.90
56162;DHT22;42045;52.986;6.014;2022-10-16T13:53:06;16.90;99.90
56162;DHT22;42045;52.986;6.014;2022-10-16T13:55:32;16.90;99.90
56162;DHT22;42045;52.986;6.014;2022-10-16T13:58:12;16.70;99.90
56162;DHT22;42045;52.986;6.014;2022-10-16T14:00:38;16.60;99.90
56162;DHT22;42045;52.986;6.014;2022-10-16T14:03:13;16.50;99.90
56162;DHT22;42045;52.986;6.014;2022-10-16T14:05:48;16.50;99.90
56162;DHT22;42045;52.986;6.014;2022-10-16T14:08:14;16.40;99.90
56162;DHT22;42045;52.986;6.014;2022-10-16T14:10:40;16.40;99.90
56162;DHT22;42045;52.986;6.014;2022-10-16T14:13:07;16.40;99.90
56162;DHT22;42045;52.986;6.014;2022-10-16T14:15:35;16.30;99.90
56162;DHT22;42045;52.986;6.014;2022-10-16T14:18:02;16.30;99.90
56162;DHT22;42045;52.986;6.014;2022-10-16T14:20:33;16.20;99.90
56162;DHT22;42045;52.986;6.014;2022-10-16T14:23:16;16.00;99.90
56162;DHT22;42045;52.986;6.014;2022-10-16T14:25:44;15.90;99.90
56162;DHT22;42045;52.986;6.014;2022-10-16T14:28:18;15.80;99.90
56162;DHT22;42045;52.986;6.014;2022-10-16T14:30:56;15.70;99.90
56162;DHT22;42045;52.986;6.014;2022-10-16T14:38:37;15.50;99.90
56162;DHT22;42045;52.986;6.014;2022-10-16T14:41:04;15.50;99.90
56162;DHT22;42045;52.986;6.014;2022-10-16T14:43:41;15.40;99.90
56162;DHT22;42045;52.986;6.014;2022-10-16T14:46:12;15.40;99.90
56162;DHT22;42045;52.986;6.014;2022-10-16T14:48:52;15.40;99.90
56162;DHT22;42045;52.986;6.014;2022-10-16T14:51:19;15.40;99.90
56162;DHT22;42045;52.986;6.014;2022-10-16T14:53:46;15.30;99.90
56162;DHT22;42045;52.986;6.014;2022-10-16T14:56:21;15.30;99.90
56162;DHT22;42045;52.986;6.014;2022-10-16T14:58:47;15.40;99.90
56162;DHT22;42045;52.986;6.014;2022-10-16T15:01:13;15.30;99.90
56162;DHT22;42045;52.986;6.014;2022-10-16T15:03:39;15.30;99.90
56162;DHT22;42045;52.986;6.014;2022-10-16T15:06:12;15.30;99.90
56162;DHT22;42045;52.986;6.014;2022-10-16T15:08:38;15.30;99.90
56162;DHT22;42045;52.986;6.014;2022-10-16T15:11:04;15.30;99.90
56162;DHT22;42045;52.986;6.014;2022-10-16T15:13:31;15.30;99.90
56162;DHT22;42045;52.986;6.014;2022-10-16T15:15:56;15.20;99.90
56162;DHT22;42045;52.986;6.014;2022-10-16T15:18:23;15.20;99.90
56162;DHT22;42045;52.986;6.014;2022-10-16T15:20:50;15.20;99.90
56162;DHT22;42045;52.986;6.014;2022-10-16T15:23:21;15.20;99.90
56162;DHT22;42045;52.986;6.014;2022-10-16T15:25:50;15.20;99.90
56162;DHT22;42045;52.986;6.014;2022-10-16T15:28:17;15.20;99.90
56162;DHT22;42045;52.986;6.014;2022-10-16T15:30:44;15.10;99.90
56162;DHT22;42045;52.986;6.014;2022-10-16T15:33:16;15.10;99.90
56162;DHT22;42045;52.986;6.014;2022-10-16T15:35:43;15.00;99.90
56162;DHT22;42045;52.986;6.014;2022-10-16T15:38:12;15.00;99.90
56162;DHT22;42045;52.986;6.014;2022-10-16T15:40:39;14.90;99.90
56162;DHT22;42045;52.986;6.014;2022-10-16T15:43:05;14.80;99.90
56162;DHT22;42045;52.986;6.014;2022-10-16T15:45:31;14.70;99.90
56162;DHT22;42045;52.986;6.014;2022-10-16T15:47:56;14.70;99.90
56162;DHT22;42045;52.986;6.014;2022-10-16T15:50:22;14.60;99.90
56162;DHT22;42045;52.986;6.014;2022-10-16T15:52:49;14.50;99.90
56162;DHT22;42045;52.986;6.014;2022-10-16T15:55:15;14.40;99.90
56162;DHT22;42045;52.986;6.014;2022-10-16T15:57:41;14.30;99.90
56162;DHT22;42045;52.986;6.014;2022-10-16T16:00:11;14.30;99.90
56162;DHT22;42045;52.986;6.014;2022-10-16T16:02:38;14.20;99.90
56162;DHT22;42045;52.986;6.014;2022-10-16T16:05:04;14.10;99.90
56162;DHT22;42045;52.986;6.014;2022-10-16T16:07:34;14.10;99.90
56162;DHT22;42045;52.986;6.014;2022-10-16T16:10:00;14.00;99.90
56162;DHT22;42045;52.986;6.014;2022-10-16T16:12:25;13.90;99.90
56162;DHT22;42045;52.986;6.014;2022-10-16T16:14:51;13.90;99.90
56162;DHT22;42045;52.986;6.014;2022-10-16T16:17:17;13.80;99.90
56162;DHT22;42045;52.986;6.014;2022-10-16T16:19:43;13.70;99.90
56162;DHT22;42045;52.986;6.014;2022-10-16T16:22:09;13.70;99.90
56162;DHT22;42045;52.986;6.014;2022-10-16T16:24:34;13.60;99.90
56162;DHT22;42045;52.986;6.014;2022-10-16T16:27:00;13.50;99.90
56162;DHT22;42045;52.986;6.014;2022-10-16T16:29:25;13.50;99.90
56162;DHT22;42045;52.986;6.014;2022-10-16T16:31:51;13.40;99.90
56162;DHT22;42045;52.986;6.014;2022-10-16T16:34:28;13.30;99.90
56162;DHT22;42045;52.986;6.014;2022-10-16T16:36:55;13.30;99.90
56162;DHT22;42045;52.986;6.014;2022-10-16T16:39:22;13.20;99.90
56162;DHT22;42045;52.986;6.014;2022-10-16T16:41:47;13.20;99.90
56162;DHT22;42045;52.986;6.014;2022-10-16T16:44:14;13.10;99.90
56162;DHT22;42045;52.986;6.014;2022-10-16T16:46:41;13.10;99.90
56162;DHT22;42045;52.986;6.014;2022-10-16T16:49:09;13.00;99.90
56162;DHT22;42045;52.986;6.014;2022-10-16T16:51:36;13.00;99.90
56162;DHT22;42045;52.986;6.014;2022-10-16T16:54:02;12.90;99.90
56162;DHT22;42045;52.986;6.014;2022-10-16T16:56:28;12.90;99.90
56162;DHT22;42045;52.986;6.014;2022-10-16T16:58:55;12.80;99.90
56162;DHT22;42045;52.986;6.014;2022-10-16T17:01:23;12.80;99.90
56162;DHT22;42045;52.986;6.014;2022-10-16T17:03:51;12.70;99.90
56162;DHT22;42045;52.986;6.014;2022-10-16T17:06:19;12.60;99.90
56162;DHT22;42045;52.986;6.014;2022-10-16T17:08:44;12.60;99.90
56162;DHT22;42045;52.986;6.014;2022-10-16T17:11:16;12.50;99.90
56162;DHT22;42045;52.986;6.014;2022-10-16T17:13:42;12.50;99.90
56162;DHT22;42045;52.986;6.014;2022-10-16T17:16:08;12.40;99.90
56162;DHT22;42045;52.986;6.014;2022-10-16T17:18:35;12.30;99.90
56162;DHT22;42045;52.986;6.014;2022-10-16T17:21:02;12.40;99.90
56162;DHT22;42045;52.986;6.014;2022-10-16T17:23:29;12.30;99.90
56162;DHT22;42045;52.986;6.014;2022-10-16T17:25:55;12.30;99.90